Time;durP1;ratioP1;P1;durP2;ratioP2;P2;SDS_P1;SDS_P2;PMS_P1;PMS_P2;Temp;Humidity;BMP_temperature;BMP_pressure;BME280_temperature;BME280_humidity;BME280_pressure;Samples;Min_cycle;Max_cycle;Signal;HPM_P1;HPM_P2
2022/03/18 00:00:18;;;;;;;45.75;21.13;;;11.00;93.40;;;;;;5103130;28;20032;-61
2022/03/18 00:02:45;;;;;;;45.42;18.35;;;11.00;93.40;;;;;;5096580;28;20024;-61
2022/03/18 00:05:11;;;;;;;46.40;20.88;;;11.00;93.40;;;;;;5097334;28;20063;-62
2022/03/18 00:07:38;;;;;;;44.33;19.20;;;11.00;93.40;;;;;;5096649;28;20012;-62
2022/03/18 00:10:04;;;;;;;46.30;21.15;;;11.00;93.40;;;;;;5097163;28;20028;-61
2022/03/18 00:12:30;;;;;;;42.47;19.42;;;11.00;93.40;;;;;;5095565;28;20543;-62
2022/03/18 00:14:56;;;;;;;46.25;19.30;;;11.00;93.40;;;;;;5101793;28;20027;-61
2022/03/18 00:17:21;;;;;;;39.25;18.52;;;11.00;93.70;;;;;;5101764;28;20426;-61
2022/03/18 00:19:47;;;;;;;40.70;18.15;;;11.00;93.50;;;;;;5097418;28;20028;-62
2022/03/18 00:22:13;;;;;;;40.25;18.05;;;11.00;93.50;;;;;;5100241;28;20372;-62
2022/03/18 00:24:39;;;;;;;45.13;19.63;;;11.00;93.40;;;;;;5100381;28;20028;-61
2022/03/18 00:27:05;;;;;;;42.08;18.60;;;11.00;93.40;;;;;;5096821;28;20036;-61
2022/03/18 00:29:32;;;;;;;50.63;19.55;;;11.00;93.50;;;;;;5096947;28;20039;-61
2022/03/18 00:31:58;;;;;;;43.08;19.17;;;11.00;93.50;;;;;;5100300;28;20493;-61
2022/03/18 00:34:23;;;;;;;43.00;19.02;;;11.00;93.80;;;;;;5100962;28;20022;-62
2022/03/18 00:36:49;;;;;;;39.35;18.35;;;10.90;93.50;;;;;;5097307;28;20632;-62
2022/03/18 00:39:16;;;;;;;44.92;19.55;;;10.90;93.50;;;;;;5100321;28;20495;-62
2022/03/18 00:41:42;;;;;;;46.45;19.20;;;10.90;93.50;;;;;;5094255;28;20032;-62
2022/03/18 00:44:08;;;;;;;43.05;19.15;;;10.90;93.40;;;;;;5104405;28;20035;-62
2022/03/18 00:46:34;;;;;;;39.67;17.63;;;10.90;93.40;;;;;;5100041;28;20030;-62
2022/03/18 00:52:03;;;;;;;43.35;19.23;;;11.00;93.50;;;;;;5103332;28;20053;-62
2022/03/18 00:54:36;;;;;;;44.38;18.88;;;10.90;93.40;;;;;;5099645;28;20035;-61
2022/03/18 00:57:03;;;;;;;40.35;17.65;;;10.90;93.40;;;;;;5102711;28;20105;-61
2022/03/18 00:59:29;;;;;;;40.95;18.90;;;11.00;93.40;;;;;;5100354;28;20109;-61
2022/03/18 01:01:56;;;;;;;41.97;18.60;;;10.90;93.50;;;;;;5103623;28;20392;-61
2022/03/18 01:04:22;;;;;;;42.22;17.60;;;10.90;93.40;;;;;;5101490;28;20034;-62
2022/03/18 01:06:55;;;;;;;40.10;17.75;;;10.90;93.40;;;;;;5102977;28;20308;-62
2022/03/18 01:09:22;;;;;;;38.38;16.85;;;11.00;93.50;;;;;;5098291;28;20047;-61
2022/03/18 01:11:49;;;;;;;35.38;16.35;;;10.90;93.50;;;;;;5101492;28;20532;-61
2022/03/18 01:14:16;;;;;;;38.50;18.45;;;11.00;93.50;;;;;;5097886;28;20027;-61
2022/03/18 01:16:42;;;;;;;38.47;17.80;;;10.90;93.50;;;;;;5104675;28;20031;-62
2022/03/18 01:19:08;;;;;;;34.13;16.80;;;10.90;93.50;;;;;;5101894;28;20032;-61
2022/03/18 01:21:35;;;;;;;39.72;18.02;;;10.90;93.50;;;;;;5100145;28;20385;-61
2022/03/18 01:24:01;;;;;;;36.40;16.85;;;10.90;93.40;;;;;;5099955;28;20020;-61
2022/03/18 01:26:28;;;;;;;36.92;16.83;;;10.90;93.50;;;;;;5102001;28;20024;-62
2022/03/18 01:28:54;;;;;;;36.88;15.98;;;10.90;93.40;;;;;;5104372;28;20050;-62
2022/03/18 01:31:20;;;;;;;44.17;17.25;;;10.90;93.50;;;;;;5103944;28;20484;-61
2022/03/18 01:33:45;;;;;;;38.58;17.92;;;10.90;93.50;;;;;;5107677;28;20034;-61
2022/03/18 01:36:14;;;;;;;47.10;17.85;;;10.90;93.50;;;;;;5102228;28;20032;-62
2022/03/18 01:38:40;;;;;;;40.33;17.42;;;10.90;93.50;;;;;;5102456;28;20032;-61
2022/03/18 01:41:05;;;;;;;37.33;16.17;;;10.90;93.50;;;;;;5103735;28;20107;-62
2022/03/18 01:43:45;;;;;;;36.60;16.73;;;10.90;93.60;;;;;;5104931;28;20434;-61
2022/03/18 01:46:11;;;;;;;38.88;17.30;;;10.90;93.60;;;;;;5106033;28;20267;-61
2022/03/18 01:48:37;;;;;;;38.78;17.55;;;10.90;93.60;;;;;;5100575;28;20023;-62
2022/03/18 01:51:07;;;;;;;37.20;17.27;;;10.90;93.50;;;;;;5102579;28;20024;-62
2022/03/18 01:53:38;;;;;;;34.38;17.20;;;10.90;93.50;;;;;;5102793;28;20070;-62
2022/03/18 01:56:05;;;;;;;38.35;16.75;;;10.90;93.50;;;;;;5100037;28;20328;-61
2022/03/18 02:00:59;;;;;;;35.05;16.13;;;10.90;93.50;;;;;;5095650;28;20055;-65
2022/03/18 02:03:24;;;;;;;37.25;16.52;;;10.90;93.50;;;;;;5104956;28;20016;-65
2022/03/18 02:05:50;;;;;;;40.13;17.20;;;10.90;93.60;;;;;;5089640;28;20384;-66
2022/03/18 02:08:17;;;;;;;39.53;18.02;;;10.90;93.50;;;;;;5107893;28;20109;-65
2022/03/18 02:10:43;;;;;;;37.30;16.52;;;10.90;93.60;;;;;;5111636;28;20125;-66
2022/03/18 02:13:09;;;;;;;42.60;15.85;;;10.90;93.50;;;;;;5111072;28;20027;-65
2022/03/18 02:15:35;;;;;;;37.45;17.13;;;10.90;93.60;;;;;;5106972;28;20131;-66
2022/03/18 02:18:01;;;;;;;31.13;15.45;;;10.90;93.60;;;;;;5111699;28;20099;-65
2022/03/18 02:20:26;;;;;;;39.15;17.92;;;10.90;93.60;;;;;;5098865;28;20103;-66
2022/03/18 02:22:54;;;;;;;35.28;16.48;;;10.90;93.60;;;;;;5113739;28;20019;-66
2022/03/18 02:25:19;;;;;;;30.02;15.85;;;10.90;93.50;;;;;;5092605;28;20024;-66
2022/03/18 02:28:01;;;;;;;31.45;16.10;;;10.90;93.60;;;;;;5106842;28;20027;-65
2022/03/18 02:30:32;;;;;;;37.55;16.40;;;10.90;93.60;;;;;;5110498;28;20019;-65
2022/03/18 02:32:58;;;;;;;42.20;17.70;;;10.90;93.50;;;;;;5111752;28;20039;-65
2022/03/18 02:35:26;;;;;;;36.17;17.35;;;10.90;93.60;;;;;;5113572;28;20529;-65
2022/03/18 02:37:52;;;;;;;36.67;17.33;;;10.90;93.70;;;;;;5113198;28;20023;-66
2022/03/18 02:40:17;;;;;;;34.10;17.15;;;10.90;93.60;;;;;;5094888;28;20461;-65
2022/03/18 02:42:44;;;;;;;41.22;17.75;;;10.80;93.50;;;;;;5112727;28;20604;-65
2022/03/18 02:45:11;;;;;;;35.05;15.80;;;10.80;93.50;;;;;;5113393;28;20031;-65
2022/03/18 02:47:37;;;;;;;36.60;16.35;;;10.80;93.70;;;;;;5113382;28;20439;-65
2022/03/18 02:50:04;;;;;;;34.83;17.02;;;10.80;93.50;;;;;;5109269;28;20016;-65
2022/03/18 02:52:29;;;;;;;41.53;17.60;;;10.80;93.70;;;;;;5090912;28;20366;-65
2022/03/18 02:54:55;;;;;;;37.53;16.40;;;10.80;93.70;;;;;;5091525;28;20059;-65
2022/03/18 02:57:21;;;;;;;33.78;16.38;;;10.80;93.60;;;;;;5108363;28;20031;-66
2022/03/18 02:59:47;;;;;;;43.28;16.90;;;10.80;93.60;;;;;;5109719;28;20444;-65
2022/03/18 03:02:14;;;;;;;41.22;17.80;;;10.80;93.70;;;;;;5109173;28;20111;-65
2022/03/18 03:07:59;;;;;;;37.78;16.20;;;10.90;93.70;;;;;;5109995;28;20139;-65
2022/03/18 03:10:11;;;;;;;33.95;15.82;;;10.80;93.60;;;;;;5110259;28;20156;-66
2022/03/18 03:12:40;;;;;;;37.10;17.08;;;10.80;93.70;;;;;;5109486;28;20035;-65
2022/03/18 03:15:07;;;;;;;37.13;17.73;;;10.80;93.70;;;;;;5109098;28;20247;-65
2022/03/18 03:17:33;;;;;;;46.05;18.70;;;10.80;93.70;;;;;;5109949;28;20019;-66
2022/03/18 03:19:58;;;;;;;37.97;18.00;;;10.80;93.60;;;;;;5110219;28;20395;-65
2022/03/18 03:22:24;;;;;;;40.08;19.13;;;10.80;93.70;;;;;;5109742;28;20556;-65
2022/03/18 03:24:50;;;;;;;35.72;16.83;;;10.80;93.60;;;;;;5093542;28;20027;-65
2022/03/18 03:27:16;;;;;;;39.90;16.85;;;10.80;93.80;;;;;;5100981;28;20031;-65
2022/03/18 03:29:41;;;;;;;42.55;17.70;;;10.80;93.50;;;;;;5108493;28;20497;-66
2022/03/18 03:32:07;;;;;;;37.95;16.42;;;10.80;93.60;;;;;;5109425;28;20063;-65
2022/03/18 03:34:34;;;;;;;34.35;16.20;;;10.80;93.60;;;;;;5110068;28;20379;-65
2022/03/18 03:36:59;;;;;;;48.28;20.40;;;10.80;93.60;;;;;;5109716;28;20094;-65
2022/03/18 03:39:25;;;;;;;36.33;17.30;;;10.80;93.70;;;;;;5100841;28;20107;-65
2022/03/18 03:41:51;;;;;;;46.30;18.25;;;10.80;93.60;;;;;;5093036;28;20427;-65
2022/03/18 03:44:16;;;;;;;42.38;19.13;;;10.80;93.60;;;;;;5090072;28;20046;-66
2022/03/18 03:46:42;;;;;;;41.75;18.45;;;10.80;93.60;;;;;;5107302;28;20031;-66
2022/03/18 03:49:09;;;;;;;41.70;17.92;;;10.80;93.60;;;;;;5109842;28;20019;-65
2022/03/18 03:51:35;;;;;;;45.70;18.00;;;10.80;93.60;;;;;;5109774;28;20035;-65
2022/03/18 03:54:00;;;;;;;43.10;17.52;;;10.80;93.50;;;;;;5110298;28;20353;-65
2022/03/18 03:56:26;;;;;;;45.08;18.33;;;10.80;93.60;;;;;;5109513;28;20415;-66
2022/03/18 03:58:52;;;;;;;42.67;19.33;;;10.80;93.60;;;;;;5109022;28;20027;-66
2022/03/18 04:01:17;;;;;;;47.83;19.88;;;10.80;93.60;;;;;;5089973;28;20031;-65
2022/03/18 04:03:45;;;;;;;32.15;15.60;;;10.80;93.70;;;;;;5110299;28;20023;-65
2022/03/18 04:06:10;;;;;;;52.53;18.85;;;10.80;93.70;;;;;;5109699;28;20030;-65
2022/03/18 04:08:36;;;;;;;43.17;19.15;;;10.80;93.70;;;;;;5110031;28;20020;-65
2022/03/18 04:11:02;;;;;;;39.50;17.38;;;10.80;93.70;;;;;;5109429;28;20028;-65
2022/03/18 04:13:28;;;;;;;43.42;18.13;;;10.80;93.80;;;;;;5103897;28;20032;-65
2022/03/18 04:15:54;;;;;;;51.42;20.17;;;10.80;93.70;;;;;;5098677;28;20031;-66
2022/03/18 04:18:19;;;;;;;47.70;19.73;;;10.80;93.70;;;;;;5109643;28;20116;-66
2022/03/18 04:20:45;;;;;;;43.05;19.10;;;10.80;93.70;;;;;;5109337;28;20476;-65
2022/03/18 04:23:11;;;;;;;57.90;21.25;;;10.80;93.70;;;;;;5109454;28;20043;-65
2022/03/18 04:25:36;;;;;;;51.25;20.05;;;10.80;93.70;;;;;;5109864;28;20027;-65
2022/03/18 04:28:02;;;;;;;44.22;19.52;;;10.80;93.70;;;;;;5109744;28;20047;-65
2022/03/18 04:30:28;;;;;;;46.67;21.17;;;10.70;93.70;;;;;;5111885;28;20375;-65
2022/03/18 04:32:54;;;;;;;49.33;22.48;;;10.80;93.80;;;;;;5095174;28;20048;-65
2022/03/18 04:35:19;;;;;;;44.75;21.75;;;10.80;93.70;;;;;;5092919;28;20043;-65
2022/03/18 04:37:45;;;;;;;46.97;20.92;;;10.80;93.60;;;;;;5093285;28;20028;-65
2022/03/18 04:40:13;;;;;;;54.70;21.05;;;10.70;93.60;;;;;;5093395;28;20106;-65
2022/03/18 04:42:40;;;;;;;51.78;20.23;;;10.80;93.70;;;;;;5107471;28;20027;-65
2022/03/18 04:45:07;;;;;;;48.00;20.35;;;10.80;93.70;;;;;;5114296;28;20422;-66
2022/03/18 04:47:33;;;;;;;50.72;21.58;;;10.80;93.60;;;;;;5093639;28;20031;-65
2022/03/18 04:50:00;;;;;;;52.70;20.77;;;10.80;93.70;;;;;;5107540;28;20417;-66
2022/03/18 04:52:26;;;;;;;47.10;20.55;;;10.80;93.60;;;;;;5114797;28;20074;-65
2022/03/18 04:54:52;;;;;;;49.10;20.88;;;10.80;93.60;;;;;;5113111;28;20055;-65
2022/03/18 04:57:20;;;;;;;47.45;19.25;;;10.80;93.80;;;;;;5113065;28;20667;-64
2022/03/18 04:59:48;;;;;;;50.40;20.60;;;10.80;93.70;;;;;;5094678;28;20031;-64
2022/03/18 05:02:15;;;;;;;55.38;22.13;;;10.80;93.70;;;;;;5112491;28;20077;-64
2022/03/18 05:04:42;;;;;;;53.47;23.35;;;10.80;93.70;;;;;;5111909;28;20045;-64
2022/03/18 05:07:09;;;;;;;51.55;21.73;;;10.70;93.70;;;;;;5113716;28;20499;-64
2022/03/18 05:09:34;;;;;;;48.67;20.90;;;10.80;93.70;;;;;;5113105;28;20358;-65
2022/03/18 05:12:00;;;;;;;50.83;21.58;;;10.80;93.60;;;;;;5113055;28;20088;-64
2022/03/18 05:14:25;;;;;;;52.85;21.50;;;10.80;93.60;;;;;;5113385;28;20072;-64
2022/03/18 05:16:52;;;;;;;54.08;21.25;;;10.80;93.60;;;;;;5112202;28;20388;-64
2022/03/18 05:19:17;;;;;;;52.45;22.25;;;10.80;93.60;;;;;;5113196;28;20088;-64
2022/03/18 05:21:43;;;;;;;56.58;21.20;;;10.80;93.60;;;;;;5105372;28;20154;-64
2022/03/18 05:24:10;;;;;;;50.65;20.52;;;10.80;93.50;;;;;;5095760;28;20024;-65
2022/03/18 05:26:37;;;;;;;57.15;22.73;;;10.80;93.50;;;;;;5102940;28;20034;-64
2022/03/18 05:29:03;;;;;;;64.40;23.90;;;10.80;93.60;;;;;;5093902;28;20077;-64
2022/03/18 05:31:31;;;;;;;48.15;21.63;;;10.80;93.60;;;;;;5099672;28;20031;-64
2022/03/18 05:33:57;;;;;;;54.25;23.10;;;10.80;93.50;;;;;;5112546;28;20031;-65
2022/03/18 05:36:23;;;;;;;50.60;20.70;;;10.80;93.50;;;;;;5093745;28;20035;-64
2022/03/18 05:38:49;;;;;;;48.00;20.52;;;10.80;93.50;;;;;;5112272;28;20028;-65
2022/03/18 05:41:14;;;;;;;52.22;21.95;;;10.80;93.60;;;;;;5112006;28;20035;-64
2022/03/18 05:43:40;;;;;;;63.20;28.13;;;10.80;93.50;;;;;;5111982;28;20085;-67
2022/03/18 05:46:07;;;;;;;57.38;23.15;;;10.80;93.70;;;;;;5111164;28;20636;-66
2022/03/18 05:48:32;;;;;;;51.55;24.20;;;10.60;93.50;;;;;;5112310;28;20519;-65
2022/03/18 05:51:00;;;;;;;50.03;22.92;;;10.30;93.20;;;;;;5112699;28;20043;-68
2022/03/18 05:53:26;;;;;;;54.05;22.80;;;10.20;93.40;;;;;;5111003;28;20074;-65
2022/03/18 05:58:36;;;;;;;55.67;22.83;;;10.00;93.40;;;;;;5111936;28;20649;-65
2022/03/18 06:01:03;;;;;;;51.80;21.25;;;9.90;93.40;;;;;;5110430;28;20032;-65
2022/03/18 06:03:29;;;;;;;54.50;22.63;;;9.80;93.50;;;;;;5111319;28;20023;-67
2022/03/18 06:05:54;;;;;;;55.97;22.50;;;9.80;93.80;;;;;;5110236;28;20334;-71
2022/03/18 06:13:49;;;;;;;54.47;22.50;;;9.40;94.40;;;;;;5112154;28;20161;-67
2022/03/18 06:16:15;;;;;;;54.30;23.30;;;9.30;93.90;;;;;;5109765;28;20122;-67
2022/03/18 06:18:41;;;;;;;52.15;20.50;;;9.30;94.30;;;;;;5092797;28;20042;-67
2022/03/18 06:21:07;;;;;;;49.95;20.33;;;9.40;94.10;;;;;;5100232;28;20392;-66
2022/03/18 06:23:33;;;;;;;50.28;19.83;;;9.30;93.90;;;;;;5090948;28;20024;-66
2022/03/18 06:26:02;;;;;;;53.17;18.40;;;9.20;93.90;;;;;;5090553;28;20051;-66
2022/03/18 06:28:28;;;;;;;58.35;21.13;;;9.20;94.10;;;;;;5090740;28;20055;-66
2022/03/18 06:30:54;;;;;;;43.63;19.85;;;9.30;93.90;;;;;;5089129;28;20043;-67
2022/03/18 06:33:19;;;;;;;62.25;19.80;;;9.10;94.20;;;;;;5109039;28;20043;-67
2022/03/18 06:35:45;;;;;;;50.88;20.52;;;9.30;94.20;;;;;;5111009;28;20045;-67
2022/03/18 06:38:11;;;;;;;53.80;20.75;;;9.30;94.00;;;;;;5110886;28;20019;-66
2022/03/18 06:40:37;;;;;;;49.50;20.45;;;9.20;94.10;;;;;;5111050;28;20151;-66
2022/03/18 06:43:02;;;;;;;56.60;25.05;;;9.20;94.10;;;;;;5110951;28;20092;-66
2022/03/18 06:45:28;;;;;;;51.45;20.45;;;9.20;94.30;;;;;;5110434;28;20431;-68
2022/03/18 06:47:54;;;;;;;49.85;19.67;;;9.20;94.00;;;;;;5105240;28;20059;-67
2022/03/18 06:50:22;;;;;;;53.60;20.70;;;9.30;94.10;;;;;;5105441;28;20019;-67
2022/03/18 06:52:48;;;;;;;54.47;20.45;;;9.10;94.10;;;;;;5110341;28;20042;-67
2022/03/18 06:55:13;;;;;;;58.97;21.67;;;9.10;94.40;;;;;;5108862;28;20267;-66
2022/03/18 06:57:39;;;;;;;57.30;22.35;;;9.20;94.20;;;;;;5110388;28;20015;-66
2022/03/18 07:00:05;;;;;;;52.67;19.85;;;9.20;93.90;;;;;;5090729;28;20377;-66
2022/03/18 07:02:31;;;;;;;46.83;20.00;;;9.20;94.00;;;;;;5099507;28;20024;-66
2022/03/18 07:04:56;;;;;;;66.22;22.50;;;9.30;94.10;;;;;;5110913;28;20023;-66
2022/03/18 07:07:22;;;;;;;55.83;23.35;;;9.40;94.00;;;;;;5110302;28;20038;-66
2022/03/18 07:09:47;;;;;;;52.60;21.00;;;9.20;94.00;;;;;;5110682;28;20039;-66
2022/03/18 07:12:13;;;;;;;47.33;19.48;;;9.20;94.00;;;;;;5110212;28;20031;-66
2022/03/18 07:14:39;;;;;;;48.17;20.00;;;9.00;94.10;;;;;;5089670;28;20023;-67
2022/03/18 07:19:49;;;;;;;58.58;20.55;;;9.10;94.20;;;;;;5109976;28;20077;-68
2022/03/18 07:22:15;;;;;;;55.00;20.13;;;9.20;94.00;;;;;;5110341;28;20020;-66
2022/03/18 07:24:51;;;;;;;44.17;17.30;;;9.00;93.90;;;;;;5110544;28;20532;-66
2022/03/18 07:27:17;;;;;;;48.08;20.02;;;8.90;94.70;;;;;;5091859;28;20472;-67
2022/03/18 07:29:42;;;;;;;53.63;22.05;;;9.00;94.10;;;;;;5110614;28;20027;-66
2022/03/18 07:32:08;;;;;;;52.80;22.75;;;9.00;94.10;;;;;;5109005;28;20119;-66
2022/03/18 07:34:34;;;;;;;51.00;20.90;;;8.90;94.10;;;;;;5110538;28;20497;-66
2022/03/18 07:37:00;;;;;;;42.85;17.90;;;9.00;94.00;;;;;;5110288;28;20034;-67
2022/03/18 07:39:25;;;;;;;48.17;19.88;;;9.00;93.90;;;;;;5091760;28;20077;-67
2022/03/18 07:41:51;;;;;;;46.25;18.60;;;9.20;93.80;;;;;;5104183;28;20047;-66
2022/03/18 07:44:17;;;;;;;55.75;21.58;;;9.20;93.80;;;;;;5101824;28;20038;-66
2022/03/18 07:46:42;;;;;;;46.85;20.70;;;9.10;93.90;;;;;;5097162;28;20028;-67
2022/03/18 07:49:08;;;;;;;43.67;19.48;;;9.10;93.70;;;;;;5104650;28;20016;-67
2022/03/18 07:51:33;;;;;;;57.08;27.00;;;9.00;93.60;;;;;;5108903;28;20035;-66
2022/03/18 07:53:59;;;;;;;42.63;16.17;;;9.10;93.70;;;;;;5102875;28;20048;-67
2022/03/18 07:56:24;;;;;;;60.33;21.88;;;9.10;93.70;;;;;;5090235;28;20379;-66
2022/03/18 07:58:50;;;;;;;45.83;17.77;;;9.10;93.50;;;;;;5090151;28;20021;-66
2022/03/18 08:01:16;;;;;;;47.97;19.42;;;9.10;93.80;;;;;;5089202;28;20032;-67
2022/03/18 08:03:42;;;;;;;56.40;22.00;;;9.10;93.70;;;;;;5106160;28;20031;-67
2022/03/18 08:06:08;;;;;;;40.38;18.63;;;9.20;93.70;;;;;;5114301;28;20509;-66
2022/03/18 08:08:33;;;;;;;48.28;20.77;;;9.10;93.40;;;;;;5113626;28;20024;-66
2022/03/18 08:10:59;;;;;;;53.67;22.55;;;9.10;93.10;;;;;;5111909;28;20024;-67
2022/03/18 08:13:25;;;;;;;52.17;20.58;;;9.10;93.40;;;;;;5104772;28;20042;-67
2022/03/18 08:15:51;;;;;;;54.15;22.35;;;9.00;93.10;;;;;;5114005;28;20043;-67
2022/03/18 08:18:19;;;;;;;47.33;17.00;;;8.90;93.30;;;;;;5112402;28;20020;-67
2022/03/18 08:20:44;;;;;;;44.70;20.17;;;9.00;93.50;;;;;;5113369;28;20128;-66
2022/03/18 08:23:14;;;;;;;52.28;22.60;;;9.00;93.20;;;;;;5113166;28;20047;-66
2022/03/18 08:25:40;;;;;;;40.50;17.73;;;8.90;93.30;;;;;;5113297;28;20032;-66
2022/03/18 08:28:07;;;;;;;50.63;17.20;;;9.10;93.10;;;;;;5113105;28;20035;-66
2022/03/18 08:30:33;;;;;;;46.92;18.17;;;9.10;93.00;;;;;;5113885;28;20035;-67
2022/03/18 08:32:59;;;;;;;44.35;16.25;;;9.00;93.10;;;;;;5088814;28;20385;-67
2022/03/18 08:35:24;;;;;;;45.13;21.42;;;9.00;93.10;;;;;;5108016;28;20049;-66
2022/03/18 08:37:56;;;;;;;56.45;23.98;;;9.00;93.00;;;;;;5109568;28;20485;-66
2022/03/18 08:40:32;;;;;;;50.90;20.23;;;8.90;92.80;;;;;;5113926;28;20131;-66
2022/03/18 08:42:59;;;;;;;49.60;20.83;;;9.00;93.00;;;;;;5112559;28;20032;-68
2022/03/18 08:45:26;;;;;;;46.70;20.58;;;9.10;93.00;;;;;;5113183;28;20084;-67
2022/03/18 08:47:53;;;;;;;49.78;21.73;;;8.90;92.90;;;;;;5109414;28;20027;-66
2022/03/18 08:50:21;;;;;;;37.75;16.05;;;8.90;92.70;;;;;;5108757;28;20031;-66
2022/03/18 08:52:47;;;;;;;46.88;20.30;;;8.80;92.60;;;;;;5112621;28;20035;-66
2022/03/18 08:55:13;;;;;;;49.58;18.20;;;8.90;92.80;;;;;;5113473;28;20527;-66
2022/03/18 08:57:39;;;;;;;51.47;19.88;;;8.80;92.80;;;;;;5111445;28;20020;-66
2022/03/18 09:00:07;;;;;;;42.75;18.52;;;9.00;92.40;;;;;;5093786;28;20042;-67
2022/03/18 09:02:34;;;;;;;46.25;20.40;;;9.10;92.40;;;;;;5111271;28;20088;-67
2022/03/18 09:05:01;;;;;;;50.22;19.15;;;9.20;92.30;;;;;;5112871;28;20019;-66
2022/03/18 09:07:26;;;;;;;45.85;18.58;;;9.10;92.40;;;;;;5112767;28;20023;-66
2022/03/18 09:09:52;;;;;;;34.10;15.07;;;9.00;92.20;;;;;;5113544;28;20084;-66
2022/03/18 09:12:18;;;;;;;41.15;19.63;;;9.20;92.40;;;;;;5112339;28;20033;-66
2022/03/18 09:14:45;;;;;;;37.97;17.13;;;9.20;91.80;;;;;;5112074;28;20035;-68
2022/03/18 09:17:10;;;;;;;38.80;17.08;;;9.20;92.00;;;;;;5112890;28;20012;-66
2022/03/18 09:19:37;;;;;;;40.63;18.02;;;9.10;92.00;;;;;;5111599;28;20055;-66
2022/03/18 09:22:05;;;;;;;40.10;17.77;;;9.20;92.10;;;;;;5112154;28;20027;-66
2022/03/18 09:24:31;;;;;;;36.95;16.23;;;9.20;92.10;;;;;;5112582;28;20023;-67
2022/03/18 09:26:57;;;;;;;41.58;17.45;;;9.30;92.20;;;;;;5111916;28;20046;-67
2022/03/18 09:29:25;;;;;;;49.13;19.10;;;9.30;92.00;;;;;;5112357;28;20571;-66
2022/03/18 09:31:51;;;;;;;44.47;19.58;;;9.40;92.20;;;;;;5110551;28;20031;-66
2022/03/18 09:34:17;;;;;;;41.47;17.88;;;9.40;91.80;;;;;;5111306;28;20064;-67
2022/03/18 09:36:44;;;;;;;40.10;17.17;;;9.30;91.60;;;;;;5113119;28;20016;-67
2022/03/18 09:39:09;;;;;;;37.22;17.75;;;9.30;91.40;;;;;;5112008;28;20531;-67
2022/03/18 09:41:35;;;;;;;40.65;18.00;;;9.40;91.50;;;;;;5111694;28;20099;-67
2022/03/18 09:44:01;;;;;;;40.75;18.40;;;9.40;91.40;;;;;;5112303;28;20468;-66
2022/03/18 09:46:27;;;;;;;43.58;16.48;;;9.40;91.50;;;;;;5112352;28;20027;-67
2022/03/18 09:48:54;;;;;;;40.10;16.55;;;9.30;91.50;;;;;;5109286;28;20178;-67
2022/03/18 09:51:19;;;;;;;43.45;17.83;;;9.30;91.60;;;;;;5102940;28;20012;-67
2022/03/18 09:53:45;;;;;;;32.53;14.98;;;9.40;91.70;;;;;;5095467;28;20039;-66
2022/03/18 09:56:11;;;;;;;40.20;16.58;;;9.30;91.40;;;;;;5091984;28;20039;-67
2022/03/18 09:58:38;;;;;;;46.50;20.80;;;9.20;91.50;;;;;;5091491;28;20491;-67
2022/03/18 10:01:04;;;;;;;40.63;16.27;;;9.30;91.30;;;;;;5091734;28;20036;-66
2022/03/18 10:03:39;;;;;;;38.60;18.00;;;9.30;91.30;;;;;;5094641;28;20616;-66
2022/03/18 10:06:04;;;;;;;39.97;16.55;;;9.40;91.40;;;;;;5110373;28;20024;-66
2022/03/18 10:08:47;;;;;;;40.45;17.85;;;9.40;91.70;;;;;;5100420;28;20196;-66
2022/03/18 10:11:24;;;;;;;44.97;18.25;;;9.40;91.30;;;;;;5105084;28;20068;-67
2022/03/18 10:13:53;;;;;;;39.13;17.27;;;9.30;91.30;;;;;;5109665;28;20068;-66
2022/03/18 10:16:31;;;;;;;46.08;19.25;;;9.40;91.50;;;;;;5090539;28;20495;-67
2022/03/18 10:18:56;;;;;;;41.20;16.40;;;9.50;91.50;;;;;;5097196;28;20076;-66
2022/03/18 10:21:22;;;;;;;36.72;16.25;;;9.50;91.40;;;;;;5109897;28;20050;-65
2022/03/18 10:23:48;;;;;;;43.42;19.40;;;9.40;91.50;;;;;;5084021;28;20027;-66
2022/03/18 10:26:15;;;;;;;43.22;17.08;;;9.50;91.30;;;;;;5098028;28;20035;-66
2022/03/18 10:28:43;;;;;;;34.83;17.00;;;9.60;91.10;;;;;;5089634;28;20093;-66
2022/03/18 10:31:21;;;;;;;34.92;15.38;;;9.60;91.30;;;;;;5090822;28;20031;-66
2022/03/18 10:39:24;;;;;;;40.50;18.08;;;9.70;91.30;;;;;;5110277;28;20392;-66
2022/03/18 10:42:09;;;;;;;36.08;16.15;;;9.80;91.10;;;;;;5106994;28;20391;-66
2022/03/18 10:44:54;;;;;;;45.10;21.00;;;9.80;91.00;;;;;;5111512;28;20099;-66
2022/03/18 10:47:33;;;;;;;43.75;18.10;;;9.90;90.80;;;;;;5072922;28;20051;-67
2022/03/18 10:50:19;;;;;;;41.35;18.73;;;10.00;90.70;;;;;;5103084;28;20032;-66
2022/03/18 10:52:47;;;;;;;42.25;19.17;;;9.90;90.60;;;;;;5109678;28;20707;-66
2022/03/18 10:55:22;;;;;;;34.47;13.48;;;9.90;90.70;;;;;;5110864;28;20102;-66
2022/03/18 10:57:52;;;;;;;46.50;20.33;;;9.90;90.60;;;;;;5105193;28;20100;-66
2022/03/18 11:00:19;;;;;;;37.78;17.73;;;9.80;90.70;;;;;;5103887;28;20020;-66
2022/03/18 11:02:51;;;;;;;40.60;17.00;;;9.90;90.50;;;;;;5097642;28;20032;-67
2022/03/18 11:05:20;;;;;;;38.35;17.23;;;9.90;90.50;;;;;;5102734;28;20038;-65
2022/03/18 11:07:47;;;;;;;39.63;14.63;;;9.80;90.40;;;;;;5108004;28;20608;-66
2022/03/18 11:13:03;;;;;;;41.72;16.77;;;10.00;90.70;;;;;;5093108;28;20043;-66
2022/03/18 11:15:31;;;;;;;35.50;17.02;;;10.10;90.80;;;;;;5101960;28;20554;-66
2022/03/18 11:17:58;;;;;;;37.22;15.55;;;10.30;90.60;;;;;;5100409;28;20028;-66
2022/03/18 11:20:29;;;;;;;49.03;17.80;;;10.50;90.30;;;;;;5103726;28;20059;-66
2022/03/18 11:22:55;;;;;;;38.97;16.25;;;10.60;90.00;;;;;;5109256;28;20031;-66
2022/03/18 11:25:22;;;;;;;39.35;18.70;;;10.70;89.40;;;;;;5109822;28;20080;-66
2022/03/18 11:27:48;;;;;;;35.83;17.60;;;10.70;88.50;;;;;;5110031;28;20016;-66
2022/03/18 11:30:25;;;;;;;34.72;14.80;;;10.80;88.10;;;;;;5104969;28;21208;-67
2022/03/18 11:33:06;;;;;;;45.65;17.08;;;10.90;89.00;;;;;;5088424;28;20028;-67
2022/03/18 11:36:02;;;;;;;41.85;16.48;;;11.10;88.90;;;;;;5103467;28;20031;-66
2022/03/18 11:38:55;;;;;;;39.90;15.73;;;11.00;87.80;;;;;;5088438;28;20039;-66
2022/03/18 11:41:24;;;;;;;44.40;21.10;;;11.00;86.90;;;;;;5101883;28;20015;-67
2022/03/18 11:43:52;;;;;;;45.40;22.50;;;10.90;86.10;;;;;;5092759;28;20047;-66
2022/03/18 11:46:20;;;;;;;40.47;17.38;;;10.70;86.50;;;;;;5098466;28;20027;-66
2022/03/18 11:48:50;;;;;;;42.97;17.98;;;10.70;85.30;;;;;;5095874;28;20460;-67
2022/03/18 11:51:23;;;;;;;44.17;20.48;;;10.80;85.20;;;;;;5107133;28;20143;-66
2022/03/18 11:53:51;;;;;;;38.03;18.20;;;10.90;85.30;;;;;;5100020;28;20040;-67
2022/03/18 11:56:19;;;;;;;45.90;19.13;;;10.90;84.60;;;;;;5101340;28;20045;-66
2022/03/18 11:58:45;;;;;;;36.40;16.38;;;10.90;84.30;;;;;;5109427;28;20027;-66
2022/03/18 12:01:37;;;;;;;43.92;22.05;;;11.00;85.00;;;;;;5108893;28;20114;-66
2022/03/18 12:04:05;;;;;;;38.83;18.30;;;11.00;83.90;;;;;;5105202;28;20032;-67
2022/03/18 12:06:30;;;;;;;39.72;18.17;;;11.20;85.20;;;;;;5108990;28;20024;-66
2022/03/18 12:08:58;;;;;;;44.85;17.77;;;11.20;84.70;;;;;;5109812;28;20102;-66
2022/03/18 12:11:28;;;;;;;39.13;15.40;;;11.30;85.10;;;;;;5108731;28;20027;-66
2022/03/18 12:13:54;;;;;;;37.20;15.33;;;11.40;84.60;;;;;;5117249;28;20480;-65
2022/03/18 12:16:20;;;;;;;44.63;20.38;;;11.50;84.80;;;;;;5130214;28;20303;-67
2022/03/18 12:18:46;;;;;;;36.40;16.90;;;11.60;83.50;;;;;;5130503;28;20506;-65
2022/03/18 12:21:14;;;;;;;32.28;16.38;;;11.60;83.60;;;;;;5111603;28;20031;-66
2022/03/18 12:23:39;;;;;;;35.33;15.07;;;11.60;81.50;;;;;;5108641;28;20465;-66
2022/03/18 12:26:06;;;;;;;39.65;16.33;;;11.60;82.00;;;;;;5109232;28;20027;-66
2022/03/18 12:28:48;;;;;;;45.67;21.17;;;11.60;80.60;;;;;;5108727;28;20023;-66
2022/03/18 12:31:15;;;;;;;45.45;20.60;;;11.70;79.30;;;;;;5108052;28;20568;-65
2022/03/18 12:33:41;;;;;;;43.47;18.95;;;11.70;81.10;;;;;;5109153;28;20042;-66
2022/03/18 12:36:07;;;;;;;36.17;15.20;;;11.50;81.40;;;;;;5108388;28;20062;-66
2022/03/18 12:38:33;;;;;;;32.80;15.30;;;11.50;82.80;;;;;;5109019;28;20484;-66
2022/03/18 12:40:59;;;;;;;38.95;18.80;;;11.40;82.40;;;;;;5108228;28;20050;-66
2022/03/18 12:43:31;;;;;;;38.22;17.80;;;11.40;78.30;;;;;;5104720;28;20521;-66
2022/03/18 12:45:57;;;;;;;41.22;16.13;;;11.40;77.20;;;;;;5096132;28;20127;-64
2022/03/18 12:48:23;;;;;;;35.42;16.02;;;11.40;76.80;;;;;;5108677;28;20532;-66
2022/03/18 12:50:54;;;;;;;40.67;15.95;;;11.40;77.20;;;;;;5113208;27;20110;-66
2022/03/18 12:53:34;;;;;;;40.50;18.25;;;11.40;78.30;;;;;;5094182;28;20032;-66
2022/03/18 12:56:02;;;;;;;37.63;17.90;;;11.30;79.70;;;;;;5113078;28;20051;-66
2022/03/18 12:58:34;;;;;;;38.83;16.48;;;11.30;80.30;;;;;;5112829;28;20026;-66